sensor_id;sensor_type;location;lat;lon;timestamp;pressure;altitude;pressure_sealevel;temperature;humidity
73341;BME280;61578;52.002;5.468;2023-02-22T00:00:18;101536.38;;;8.38;84.06
73341;BME280;61578;52.002;5.468;2023-02-22T00:01:05;101528.56;;;8.35;83.89
73341;BME280;61578;52.002;5.468;2023-02-22T00:01:48;101525.09;;;8.34;83.96
73341;BME280;61578;52.002;5.468;2023-02-22T00:02:39;101532.06;;;8.35;83.64
73341;BME280;61578;52.002;5.468;2023-02-22T00:03:22;101538.22;;;8.36;83.72
73341;BME280;61578;52.002;5.468;2023-02-22T00:03:54;101519.91;;;8.31;84.04
73341;BME280;61578;52.002;5.468;2023-02-22T00:04:25;101536.50;;;8.35;83.96
73341;BME280;61578;52.002;5.468;2023-02-22T00:04:57;101532.06;;;8.35;84.52
73341;BME280;61578;52.002;5.468;2023-02-22T00:05:28;101531.19;;;8.35;84.31
73341;BME280;61578;52.002;5.468;2023-02-22T00:06:02;101525.09;;;8.34;84.12
73341;BME280;61578;52.002;5.468;2023-02-22T00:06:35;101534.81;;;8.34;83.85
73341;BME280;61578;52.002;5.468;2023-02-22T00:07:06;101521.84;;;8.26;84.08
73341;BME280;61578;52.002;5.468;2023-02-22T00:07:37;101539.25;;;8.33;84.09
73341;BME280;61578;52.002;5.468;2023-02-22T00:08:08;101526.88;;;8.34;83.50
73341;BME280;61578;52.002;5.468;2023-02-22T00:08:39;101540.88;;;8.36;83.38
73341;BME280;61578;52.002;5.468;2023-02-22T00:09:10;101534.81;;;8.34;83.90
73341;BME280;61578;52.002;5.468;2023-02-22T00:09:40;101540.00;;;8.35;83.72
73341;BME280;61578;52.002;5.468;2023-02-22T00:10:13;101535.66;;;8.34;83.56
73341;BME280;61578;52.002;5.468;2023-02-22T00:10:49;101532.22;;;8.32;83.45
73341;BME280;61578;52.002;5.468;2023-02-22T00:11:20;101515.78;;;8.24;83.36
73341;BME280;61578;52.002;5.468;2023-02-22T00:11:51;101533.94;;;8.33;83.27
73341;BME280;61578;52.002;5.468;2023-02-22T00:12:22;101534.00;;;8.32;83.32
73341;BME280;61578;52.002;5.468;2023-02-22T00:12:54;101536.66;;;8.32;83.49
73341;BME280;61578;52.002;5.468;2023-02-22T00:13:26;101527.78;;;8.33;83.27
73341;BME280;61578;52.002;5.468;2023-02-22T00:14:00;101540.19;;;8.31;83.32
73341;BME280;61578;52.002;5.468;2023-02-22T00:14:31;101532.25;;;8.31;83.49
73341;BME280;61578;52.002;5.468;2023-02-22T00:15:03;101528.88;;;8.27;84.07
73341;BME280;61578;52.002;5.468;2023-02-22T00:15:36;101536.66;;;8.32;83.51
73341;BME280;61578;52.002;5.468;2023-02-22T00:16:07;101530.44;;;8.33;83.59
73341;BME280;61578;52.002;5.468;2023-02-22T00:16:37;101530.44;;;8.33;84.00
73341;BME280;61578;52.002;5.468;2023-02-22T00:17:08;101529.56;;;8.32;83.76
73341;BME280;61578;52.002;5.468;2023-02-22T00:17:43;101533.09;;;8.33;83.52
73341;BME280;61578;52.002;5.468;2023-02-22T00:18:17;101538.38;;;8.33;83.78
73341;BME280;61578;52.002;5.468;2023-02-22T00:18:49;101520.22;;;8.24;83.96
73341;BME280;61578;52.002;5.468;2023-02-22T00:19:20;101529.66;;;8.29;83.78
73341;BME280;61578;52.002;5.468;2023-02-22T00:19:51;101528.88;;;8.27;83.43
73341;BME280;61578;52.002;5.468;2023-02-22T00:20:22;101534.16;;;8.27;83.58
73341;BME280;61578;52.002;5.468;2023-02-22T00:20:58;101529.72;;;8.28;83.66
73341;BME280;61578;52.002;5.468;2023-02-22T00:21:30;101497.13;;;8.07;83.43
73341;BME280;61578;52.002;5.468;2023-02-22T00:22:01;101525.41;;;8.25;83.12
73341;BME280;61578;52.002;5.468;2023-02-22T00:22:32;101523.50;;;8.29;83.05
73341;BME280;61578;52.002;5.468;2023-02-22T00:23:04;101526.09;;;8.30;82.95
73341;BME280;61578;52.002;5.468;2023-02-22T00:23:40;101526.09;;;8.30;82.87
73341;BME280;61578;52.002;5.468;2023-02-22T00:24:18;101529.56;;;8.32;82.90
73341;BME280;61578;52.002;5.468;2023-02-22T00:24:56;101531.50;;;8.27;83.16
73341;BME280;61578;52.002;5.468;2023-02-22T00:25:27;101490.97;;;8.06;83.47
73341;BME280;61578;52.002;5.468;2023-02-22T00:25:59;101536.00;;;8.25;83.87
73341;BME280;61578;52.002;5.468;2023-02-22T00:26:32;101528.00;;;8.27;83.44
73341;BME280;61578;52.002;5.468;2023-02-22T00:27:03;101527.22;;;8.25;83.66
73341;BME280;61578;52.002;5.468;2023-02-22T00:27:35;101526.28;;;8.26;82.95
73341;BME280;61578;52.002;5.468;2023-02-22T00:28:06;101512.59;;;8.16;83.34
73341;BME280;61578;52.002;5.468;2023-02-22T00:28:37;101511.03;;;8.12;83.29
73341;BME280;61578;52.002;5.468;2023-02-22T00:29:08;101537.66;;;8.28;83.49
73341;BME280;61578;52.002;5.468;2023-02-22T00:29:44;101528.88;;;8.27;82.95
73341;BME280;61578;52.002;5.468;2023-02-22T00:30:19;101531.56;;;8.26;83.13
73341;BME280;61578;52.002;5.468;2023-02-22T00:30:52;101525.41;;;8.25;83.25
73341;BME280;61578;52.002;5.468;2023-02-22T00:31:24;101537.94;;;8.22;83.23
73341;BME280;61578;52.002;5.468;2023-02-22T00:31:54;101533.44;;;8.24;83.02
73341;BME280;61578;52.002;5.468;2023-02-22T00:32:25;101487.88;;;7.97;82.59
73341;BME280;61578;52.002;5.468;2023-02-22T00:32:57;101535.28;;;8.22;82.97
73341;BME280;61578;52.002;5.468;2023-02-22T00:33:28;101527.44;;;8.20;83.23
73341;BME280;61578;52.002;5.468;2023-02-22T00:33:59;101534.44;;;8.21;83.76
73341;BME280;61578;52.002;5.468;2023-02-22T00:34:29;101537.78;;;8.25;83.63
73341;BME280;61578;52.002;5.468;2023-02-22T00:35:01;101528.16;;;8.24;83.43
73341;BME280;61578;52.002;5.468;2023-02-22T00:35:34;101528.16;;;8.24;83.40
73341;BME280;61578;52.002;5.468;2023-02-22T00:36:06;101533.28;;;8.27;83.92
73341;BME280;61578;52.002;5.468;2023-02-22T00:36:44;101532.44;;;8.26;83.77
73341;BME280;61578;52.002;5.468;2023-02-22T00:37:18;101531.56;;;8.26;83.66
73341;BME280;61578;52.002;5.468;2023-02-22T00:37:52;101529.66;;;8.29;83.46
73341;BME280;61578;52.002;5.468;2023-02-22T00:38:26;101543.06;;;8.25;83.92
73341;BME280;61578;52.002;5.468;2023-02-22T00:38:56;101540.38;;;8.26;83.88
73341;BME280;61578;52.002;5.468;2023-02-22T00:39:27;101528.16;;;8.24;83.50
73341;BME280;61578;52.002;5.468;2023-02-22T00:39:58;101534.31;;;8.24;83.17
73341;BME280;61578;52.002;5.468;2023-02-22T00:40:31;101536.00;;;8.25;83.28
73341;BME280;61578;52.002;5.468;2023-02-22T00:41:03;101530.72;;;8.25;83.41
73341;BME280;61578;52.002;5.468;2023-02-22T00:41:34;101531.56;;;8.26;83.61
73341;BME280;61578;52.002;5.468;2023-02-22T00:42:05;101535.09;;;8.26;83.59
73341;BME280;61578;52.002;5.468;2023-02-22T00:42:36;101534.38;;;8.23;83.67
73341;BME280;61578;52.002;5.468;2023-02-22T00:43:07;101544.81;;;8.26;83.96
73341;BME280;61578;52.002;5.468;2023-02-22T00:43:38;101530.00;;;8.22;83.58
73341;BME280;61578;52.002;5.468;2023-02-22T00:44:10;101528.88;;;8.27;83.41
73341;BME280;61578;52.002;5.468;2023-02-22T00:44:41;101532.44;;;8.26;83.38
73341;BME280;61578;52.002;5.468;2023-02-22T00:45:16;101529.09;;;8.23;83.81
73341;BME280;61578;52.002;5.468;2023-02-22T00:45:48;101534.16;;;8.27;83.56
73341;BME280;61578;52.002;5.468;2023-02-22T00:46:19;101523.63;;;8.26;83.81
73341;BME280;61578;52.002;5.468;2023-02-22T00:46:49;101528.88;;;8.27;83.67
73341;BME280;61578;52.002;5.468;2023-02-22T00:47:20;101529.72;;;8.28;83.76
73341;BME280;61578;52.002;5.468;2023-02-22T00:47:51;101534.16;;;8.27;83.91
73341;BME280;61578;52.002;5.468;2023-02-22T00:48:24;101527.22;;;8.25;83.75
73341;BME280;61578;52.002;5.468;2023-02-22T00:48:54;101518.44;;;8.24;83.77
73341;BME280;61578;52.002;5.468;2023-02-22T00:49:25;101527.16;;;8.26;83.85
73341;BME280;61578;52.002;5.468;2023-02-22T00:49:56;101523.72;;;8.24;84.17
73341;BME280;61578;52.002;5.468;2023-02-22T00:50:29;101523.72;;;8.24;83.82
73341;BME280;61578;52.002;5.468;2023-02-22T00:51:00;101518.56;;;8.21;83.47
73341;BME280;61578;52.002;5.468;2023-02-22T00:51:31;101523.72;;;8.24;83.60
73341;BME280;61578;52.002;5.468;2023-02-22T00:52:03;101482.41;;;8.01;83.69
73341;BME280;61578;52.002;5.468;2023-02-22T00:52:35;101520.06;;;8.27;83.50
73341;BME280;61578;52.002;5.468;2023-02-22T00:53:06;101521.84;;;8.26;83.62
73341;BME280;61578;52.002;5.468;2023-02-22T00:53:38;101514.84;;;8.25;83.71
73341;BME280;61578;52.002;5.468;2023-02-22T00:54:09;101515.78;;;8.24;83.47
73341;BME280;61578;52.002;5.468;2023-02-22T00:54:40;101522.88;;;8.24;83.37
73341;BME280;61578;52.002;5.468;2023-02-22T00:55:19;101520.13;;;8.25;83.56
73341;BME280;61578;52.002;5.468;2023-02-22T00:55:53;101516.78;;;8.22;83.00
73341;BME280;61578;52.002;5.468;2023-02-22T00:56:24;101528.88;;;8.27;82.94
73341;BME280;61578;52.002;5.468;2023-02-22T00:56:55;101515.78;;;8.24;82.77
73341;BME280;61578;52.002;5.468;2023-02-22T00:57:27;101468.56;;;7.95;83.24
73341;BME280;61578;52.002;5.468;2023-02-22T00:57:59;101516.84;;;8.20;83.33
73341;BME280;61578;52.002;5.468;2023-02-22T00:58:31;101512.47;;;8.19;83.33
73341;BME280;61578;52.002;5.468;2023-02-22T00:59:02;101513.41;;;8.18;83.60
73341;BME280;61578;52.002;5.468;2023-02-22T00:59:33;101516.03;;;8.18;83.66
73341;BME280;61578;52.002;5.468;2023-02-22T01:00:08;101509.03;;;8.17;83.71
73341;BME280;61578;52.002;5.468;2023-02-22T01:00:46;101506.38;;;8.17;83.28
73341;BME280;61578;52.002;5.468;2023-02-22T01:01:17;101512.53;;;8.18;83.15
73341;BME280;61578;52.002;5.468;2023-02-22T01:01:48;101511.63;;;8.19;83.77
73341;BME280;61578;52.002;5.468;2023-02-22T01:02:19;101493.56;;;8.08;84.03
73341;BME280;61578;52.002;5.468;2023-02-22T01:02:50;101511.88;;;8.12;84.13
73341;BME280;61578;52.002;5.468;2023-02-22T01:03:22;101512.66;;;8.14;83.82
73341;BME280;61578;52.002;5.468;2023-02-22T01:03:52;101509.09;;;8.16;83.69
73341;BME280;61578;52.002;5.468;2023-02-22T01:04:23;101513.47;;;8.17;83.54
73341;BME280;61578;52.002;5.468;2023-02-22T01:04:54;101517.88;;;8.16;83.53
73341;BME280;61578;52.002;5.468;2023-02-22T01:05:27;101507.25;;;8.18;83.51
73341;BME280;61578;52.002;5.468;2023-02-22T01:05:59;101504.81;;;8.13;83.59
73341;BME280;61578;52.002;5.468;2023-02-22T01:06:30;101505.47;;;8.18;83.41
73341;BME280;61578;52.002;5.468;2023-02-22T01:07:00;101509.03;;;8.17;83.54
73341;BME280;61578;52.002;5.468;2023-02-22T01:07:31;101502.06;;;8.14;83.45
73341;BME280;61578;52.002;5.468;2023-02-22T01:08:04;101486.56;;;8.07;83.38
73341;BME280;61578;52.002;5.468;2023-02-22T01:08:36;101499.53;;;8.13;83.43
73341;BME280;61578;52.002;5.468;2023-02-22T01:09:07;101499.44;;;8.14;83.93
73341;BME280;61578;52.002;5.468;2023-02-22T01:09:38;101500.44;;;8.12;83.53
73341;BME280;61578;52.002;5.468;2023-02-22T01:10:11;101499.38;;;8.16;83.79
73341;BME280;61578;52.002;5.468;2023-02-22T01:10:43;101511.66;;;8.17;83.69
73341;BME280;61578;52.002;5.468;2023-02-22T01:11:16;101452.78;;;7.93;83.68
73341;BME280;61578;52.002;5.468;2023-02-22T01:11:52;101494.16;;;8.14;83.34
73341;BME280;61578;52.002;5.468;2023-02-22T01:12:27;101450.50;;;7.84;83.60
73341;BME280;61578;52.002;5.468;2023-02-22T01:12:59;101494.38;;;8.10;84.35
73341;BME280;61578;52.002;5.468;2023-02-22T01:13:30;101501.44;;;8.09;84.33
73341;BME280;61578;52.002;5.468;2023-02-22T01:14:02;101462.69;;;7.88;84.42
73341;BME280;61578;52.002;5.468;2023-02-22T01:14:32;101496.22;;;8.08;84.21
73341;BME280;61578;52.002;5.468;2023-02-22T01:15:07;101493.50;;;8.09;84.58
73341;BME280;61578;52.002;5.468;2023-02-22T01:15:42;101492.63;;;8.09;84.76
73341;BME280;61578;52.002;5.468;2023-02-22T01:16:14;101498.78;;;8.09;84.78
73341;BME280;61578;52.002;5.468;2023-02-22T01:16:44;101484.75;;;8.07;84.63
73341;BME280;61578;52.002;5.468;2023-02-22T01:17:15;101449.00;;;7.79;84.44
73341;BME280;61578;52.002;5.468;2023-02-22T01:17:47;101463.56;;;7.89;84.63
73341;BME280;61578;52.002;5.468;2023-02-22T01:18:20;101497.00;;;8.10;84.55
73341;BME280;61578;52.002;5.468;2023-02-22T01:18:51;101498.78;;;8.09;84.64
73341;BME280;61578;52.002;5.468;2023-02-22T01:19:22;101484.97;;;8.03;84.24
73341;BME280;61578;52.002;5.468;2023-02-22T01:19:53;101490.34;;;8.01;84.34
73341;BME280;61578;52.002;5.468;2023-02-22T01:20:25;101487.63;;;8.03;84.21
73341;BME280;61578;52.002;5.468;2023-02-22T01:20:57;101503.22;;;8.09;84.11
73341;BME280;61578;52.002;5.468;2023-02-22T01:21:30;101493.78;;;8.03;83.93
73341;BME280;61578;52.002;5.468;2023-02-22T01:22:01;101502.41;;;8.07;83.86
73341;BME280;61578;52.002;5.468;2023-02-22T01:22:35;101502.47;;;8.05;84.20
73341;BME280;61578;52.002;5.468;2023-02-22T01:23:06;101493.84;;;8.02;84.03
73341;BME280;61578;52.002;5.468;2023-02-22T01:23:38;101498.00;;;8.07;84.31
73341;BME280;61578;52.002;5.468;2023-02-22T01:24:08;101501.63;;;8.05;83.90
73341;BME280;61578;52.002;5.468;2023-02-22T01:24:39;101504.34;;;8.03;84.20
73341;BME280;61578;52.002;5.468;2023-02-22T01:25:14;101495.47;;;8.04;84.00
73341;BME280;61578;52.002;5.468;2023-02-22T01:25:47;101495.56;;;8.03;84.00
73341;BME280;61578;52.002;5.468;2023-02-22T01:26:17;101496.41;;;8.03;84.50
73341;BME280;61578;52.002;5.468;2023-02-22T01:26:51;101502.69;;;8.01;84.31
73341;BME280;61578;52.002;5.468;2023-02-22T01:27:23;101496.53;;;8.00;83.92
73341;BME280;61578;52.002;5.468;2023-02-22T01:27:54;101504.53;;;7.99;84.26
73341;BME280;61578;52.002;5.468;2023-02-22T01:28:26;101510.75;;;7.98;83.78
73341;BME280;61578;52.002;5.468;2023-02-22T01:28:58;101498.50;;;7.95;83.52
73341;BME280;61578;52.002;5.468;2023-02-22T01:29:29;101509.09;;;7.95;83.87
73341;BME280;61578;52.002;5.468;2023-02-22T01:29:59;101504.94;;;7.90;83.72
73341;BME280;61578;52.002;5.468;2023-02-22T01:30:33;101503.91;;;7.94;83.99
73341;BME280;61578;52.002;5.468;2023-02-22T01:31:05;101468.66;;;7.73;82.77
73341;BME280;61578;52.002;5.468;2023-02-22T01:31:36;101506.53;;;7.94;82.92
73341;BME280;61578;52.002;5.468;2023-02-22T01:32:07;101503.16;;;7.90;83.16
73341;BME280;61578;52.002;5.468;2023-02-22T01:32:40;101454.94;;;7.63;82.80
73341;BME280;61578;52.002;5.468;2023-02-22T01:33:12;101496.06;;;7.91;83.12
73341;BME280;61578;52.002;5.468;2023-02-22T01:33:44;101504.25;;;7.85;83.41
73341;BME280;61578;52.002;5.468;2023-02-22T01:34:17;101486.59;;;7.85;83.54
73341;BME280;61578;52.002;5.468;2023-02-22T01:34:53;101492.91;;;7.83;83.93
73341;BME280;61578;52.002;5.468;2023-02-22T01:35:28;101494.63;;;7.84;83.60
73341;BME280;61578;52.002;5.468;2023-02-22T01:36:02;101494.53;;;7.85;83.92
73341;BME280;61578;52.002;5.468;2023-02-22T01:36:33;101494.63;;;7.84;83.58
73341;BME280;61578;52.002;5.468;2023-02-22T01:37:03;101490.25;;;7.83;83.82
73341;BME280;61578;52.002;5.468;2023-02-22T01:37:35;101495.56;;;7.83;84.16
73341;BME280;61578;52.002;5.468;2023-02-22T01:38:08;101492.97;;;7.81;84.25
73341;BME280;61578;52.002;5.468;2023-02-22T01:38:39;101495.63;;;7.81;83.81
73341;BME280;61578;52.002;5.468;2023-02-22T01:39:10;101491.31;;;7.79;83.76
73341;BME280;61578;52.002;5.468;2023-02-22T01:39:41;101467.31;;;7.63;84.08
73341;BME280;61578;52.002;5.468;2023-02-22T01:40:22;101395.22;;;7.17;83.73
73341;BME280;61578;52.002;5.468;2023-02-22T01:40:55;101493.94;;;7.79;83.96
73341;BME280;61578;52.002;5.468;2023-02-22T01:41:26;101489.53;;;7.79;84.20
73341;BME280;61578;52.002;5.468;2023-02-22T01:41:57;101483.38;;;7.79;83.95
73341;BME280;61578;52.002;5.468;2023-02-22T01:42:28;101485.16;;;7.78;83.39
73341;BME280;61578;52.002;5.468;2023-02-22T01:43:03;101491.25;;;7.80;83.90
73341;BME280;61578;52.002;5.468;2023-02-22T01:43:45;101490.38;;;7.80;83.52
73341;BME280;61578;52.002;5.468;2023-02-22T01:44:19;101442.19;;;7.53;83.34
73341;BME280;61578;52.002;5.468;2023-02-22T01:46:05;101479.13;;;7.74;83.50
73341;BME280;61578;52.002;5.468;2023-02-22T01:46:50;101463.41;;;7.71;84.10
73341;BME280;61578;52.002;5.468;2023-02-22T01:47:21;101474.53;;;7.80;83.72
73341;BME280;61578;52.002;5.468;2023-02-22T01:47:51;101471.88;;;7.80;83.73
73341;BME280;61578;52.002;5.468;2023-02-22T01:49:17;101470.09;;;7.80;84.17
73341;BME280;61578;52.002;5.468;2023-02-22T01:49:49;101467.63;;;7.75;84.35
73341;BME280;61578;52.002;5.468;2023-02-22T01:50:21;101468.56;;;7.74;84.20
73341;BME280;61578;52.002;5.468;2023-02-22T01:50:58;101484.28;;;7.78;83.72
73341;BME280;61578;52.002;5.468;2023-02-22T01:51:56;101471.88;;;7.80;83.75
73341;BME280;61578;52.002;5.468;2023-02-22T01:52:28;101470.28;;;7.75;83.92
73341;BME280;61578;52.002;5.468;2023-02-22T01:53:01;101473.78;;;7.76;84.43
73341;BME280;61578;52.002;5.468;2023-02-22T01:53:39;101429.16;;;7.48;83.90
73341;BME280;61578;52.002;5.468;2023-02-22T01:54:30;101470.50;;;7.71;84.11
73341;BME280;61578;52.002;5.468;2023-02-22T01:55:05;101465.06;;;7.74;84.05
73341;BME280;61578;52.002;5.468;2023-02-22T01:55:37;101469.47;;;7.73;84.16
73341;BME280;61578;52.002;5.468;2023-02-22T01:56:11;101464.47;;;7.67;83.93
73341;BME280;61578;52.002;5.468;2023-02-22T01:56:57;101471.34;;;7.71;83.66
73341;BME280;61578;52.002;5.468;2023-02-22T01:57:36;101470.50;;;7.71;83.88
73341;BME280;61578;52.002;5.468;2023-02-22T01:58:09;101461.88;;;7.66;83.58
73341;BME280;61578;52.002;5.468;2023-02-22T01:58:44;101468.81;;;7.68;83.64
73341;BME280;61578;52.002;5.468;2023-02-22T01:59:20;101460.97;;;7.67;83.41
73341;BME280;61578;52.002;5.468;2023-02-22T01:59:57;101459.19;;;7.67;83.84
73341;BME280;61578;52.002;5.468;2023-02-22T02:00:32;101478.59;;;7.66;83.66
73341;BME280;61578;52.002;5.468;2023-02-22T02:01:04;101469.75;;;7.67;83.34
73341;BME280;61578;52.002;5.468;2023-02-22T02:01:38;101462.75;;;7.66;83.13
73341;BME280;61578;52.002;5.468;2023-02-22T02:02:15;101464.59;;;7.64;82.87
73341;BME280;61578;52.002;5.468;2023-02-22T02:02:58;101440.84;;;7.43;83.26
73341;BME280;61578;52.002;5.468;2023-02-22T02:03:37;101470.00;;;7.61;83.49
73341;BME280;61578;52.002;5.468;2023-02-22T02:04:18;101474.44;;;7.61;83.38
73341;BME280;61578;52.002;5.468;2023-02-22T02:04:56;101418.38;;;7.32;83.60
73341;BME280;61578;52.002;5.468;2023-02-22T02:05:28;101474.50;;;7.59;83.84
73341;BME280;61578;52.002;5.468;2023-02-22T02:06:05;101464.84;;;7.58;83.85
73341;BME280;61578;52.002;5.468;2023-02-22T02:06:42;101466.63;;;7.58;83.61
73341;BME280;61578;52.002;5.468;2023-02-22T02:07:19;101467.56;;;7.57;84.07
73341;BME280;61578;52.002;5.468;2023-02-22T02:07:52;101462.31;;;7.55;83.12
73341;BME280;61578;52.002;5.468;2023-02-22T02:08:46;101463.25;;;7.54;83.21
73341;BME280;61578;52.002;5.468;2023-02-22T02:10:30;101466.81;;;7.53;83.48
73341;BME280;61578;52.002;5.468;2023-02-22T02:11:04;101464.25;;;7.52;83.70
73341;BME280;61578;52.002;5.468;2023-02-22T02:11:39;101471.44;;;7.48;83.87
73341;BME280;61578;52.002;5.468;2023-02-22T02:12:15;101465.97;;;7.53;83.63
73341;BME280;61578;52.002;5.468;2023-02-22T02:12:49;101475.75;;;7.51;83.63
73341;BME280;61578;52.002;5.468;2023-02-22T02:13:24;101470.41;;;7.52;83.68
73341;BME280;61578;52.002;5.468;2023-02-22T02:13:57;101423.97;;;7.25;83.68
73341;BME280;61578;52.002;5.468;2023-02-22T02:14:28;101474.81;;;7.52;84.04
73341;BME280;61578;52.002;5.468;2023-02-22T02:15:21;101463.34;;;7.53;83.26
73341;BME280;61578;52.002;5.468;2023-02-22T02:15:54;101461.53;;;7.53;83.42
73341;BME280;61578;52.002;5.468;2023-02-22T02:16:39;101466.03;;;7.51;83.74
73341;BME280;61578;52.002;5.468;2023-02-22T02:17:16;101465.19;;;7.51;83.87
73341;BME280;61578;52.002;5.468;2023-02-22T02:17:54;101466.09;;;7.50;84.10
73341;BME280;61578;52.002;5.468;2023-02-22T02:18:30;101462.66;;;7.48;84.09
73341;BME280;61578;52.002;5.468;2023-02-22T02:19:04;101465.13;;;7.52;84.04
73341;BME280;61578;52.002;5.468;2023-02-22T02:26:13;101444.16;;;7.48;83.30
73341;BME280;61578;52.002;5.468;2023-02-22T02:27:15;101446.00;;;7.46;83.83
73341;BME280;61578;52.002;5.468;2023-02-22T02:29:08;101435.56;;;7.43;83.45
73341;BME280;61578;52.002;5.468;2023-02-22T02:32:50;101428.63;;;7.40;84.19
73341;BME280;61578;52.002;5.468;2023-02-22T02:35:31;101432.25;;;7.37;83.54
73341;BME280;61578;52.002;5.468;2023-02-22T02:40:04;101421.84;;;7.33;84.30
73341;BME280;61578;52.002;5.468;2023-02-22T02:41:48;101425.31;;;7.35;84.29
73341;BME280;61578;52.002;5.468;2023-02-22T02:42:28;101428.00;;;7.33;83.56
73341;BME280;61578;52.002;5.468;2023-02-22T02:43:20;101425.44;;;7.32;83.62
73341;BME280;61578;52.002;5.468;2023-02-22T02:44:12;101418.56;;;7.28;83.45
73341;BME280;61578;52.002;5.468;2023-02-22T02:44:55;101428.28;;;7.27;83.35
73341;BME280;61578;52.002;5.468;2023-02-22T02:45:48;101430.97;;;7.26;83.49
73341;BME280;61578;52.002;5.468;2023-02-22T02:47:29;101422.25;;;7.24;84.04
73341;BME280;61578;52.002;5.468;2023-02-22T02:48:08;101423.16;;;7.23;84.07
73341;BME280;61578;52.002;5.468;2023-02-22T02:48:50;101425.03;;;7.21;83.68
73341;BME280;61578;52.002;5.468;2023-02-22T02:49:34;101424.03;;;7.23;83.23
73341;BME280;61578;52.002;5.468;2023-02-22T02:50:20;101423.31;;;7.20;83.95
73341;BME280;61578;52.002;5.468;2023-02-22T02:50:59;101416.97;;;7.24;83.87
73341;BME280;61578;52.002;5.468;2023-02-22T02:51:37;101416.09;;;7.23;83.94
73341;BME280;61578;52.002;5.468;2023-02-22T02:52:12;101401.44;;;7.16;83.95
73341;BME280;61578;52.002;5.468;2023-02-22T02:52:48;101414.31;;;7.24;83.97
73341;BME280;61578;52.002;5.468;2023-02-22T02:53:32;101417.75;;;7.26;84.13
73341;BME280;61578;52.002;5.468;2023-02-22T02:54:07;101410.75;;;7.25;84.11
73341;BME280;61578;52.002;5.468;2023-02-22T02:54:41;101414.94;;;7.30;83.95
73341;BME280;61578;52.002;5.468;2023-02-22T02:55:16;101418.44;;;7.31;83.68
73341;BME280;61578;52.002;5.468;2023-02-22T02:55:48;101399.38;;;7.23;84.14
73341;BME280;61578;52.002;5.468;2023-02-22T02:56:19;101411.44;;;7.30;84.26
73341;BME280;61578;52.002;5.468;2023-02-22T02:56:50;101410.59;;;7.29;84.44
73341;BME280;61578;52.002;5.468;2023-02-22T02:57:21;101415.13;;;7.26;84.52
73341;BME280;61578;52.002;5.468;2023-02-22T02:57:52;101411.44;;;7.30;84.18
73341;BME280;61578;52.002;5.468;2023-02-22T02:58:22;101416.72;;;7.30;84.41
73341;BME280;61578;52.002;5.468;2023-02-22T02:58:53;101393.47;;;7.18;84.00
73341;BME280;61578;52.002;5.468;2023-02-22T02:59:28;101416.84;;;7.27;84.60
73341;BME280;61578;52.002;5.468;2023-02-22T03:00:03;101414.25;;;7.25;84.45
73341;BME280;61578;52.002;5.468;2023-02-22T03:00:57;101407.19;;;7.26;84.14
73341;BME280;61578;52.002;5.468;2023-02-22T03:02:23;101370.50;;;6.98;83.87
73341;BME280;61578;52.002;5.468;2023-02-22T03:04:42;101416.25;;;7.20;84.67
73341;BME280;61578;52.002;5.468;2023-02-22T03:07:42;101404.88;;;7.18;84.38
73341;BME280;61578;52.002;5.468;2023-02-22T03:09:37;101400.78;;;7.11;84.50
73341;BME280;61578;52.002;5.468;2023-02-22T03:11:09;101402.56;;;7.11;84.60
73341;BME280;61578;52.002;5.468;2023-02-22T03:12:18;101404.28;;;7.12;84.92
73341;BME280;61578;52.002;5.468;2023-02-22T03:14:23;101399.06;;;7.10;84.30
73341;BME280;61578;52.002;5.468;2023-02-22T03:15:27;101399.91;;;7.11;84.55
73341;BME280;61578;52.002;5.468;2023-02-22T03:16:33;101396.41;;;7.10;84.50
73341;BME280;61578;52.002;5.468;2023-02-22T03:19:01;101399.19;;;7.07;84.51
73341;BME280;61578;52.002;5.468;2023-02-22T03:19:46;101394.75;;;7.08;84.46
73341;BME280;61578;52.002;5.468;2023-02-22T03:21:33;101391.31;;;7.06;85.02
73341;BME280;61578;52.002;5.468;2023-02-22T03:22:32;101377.56;;;6.97;84.96
73341;BME280;61578;52.002;5.468;2023-02-22T03:23:23;101393.94;;;7.06;85.36
73341;BME280;61578;52.002;5.468;2023-02-22T03:24:07;101391.31;;;7.06;85.11
73341;BME280;61578;52.002;5.468;2023-02-22T03:24:58;101391.31;;;7.06;85.04
73341;BME280;61578;52.002;5.468;2023-02-22T03:25:47;101383.38;;;7.06;85.19
73341;BME280;61578;52.002;5.468;2023-02-22T03:26:33;101379.84;;;7.07;84.57
73341;BME280;61578;52.002;5.468;2023-02-22T03:27:16;101385.97;;;7.07;85.07
73341;BME280;61578;52.002;5.468;2023-02-22T03:27:56;101383.38;;;7.06;85.06
73341;BME280;61578;52.002;5.468;2023-02-22T03:28:35;101387.75;;;7.07;84.56
73341;BME280;61578;52.002;5.468;2023-02-22T03:29:12;101383.38;;;7.06;84.54
73341;BME280;61578;52.002;5.468;2023-02-22T03:29:50;101394.81;;;7.06;84.27
73341;BME280;61578;52.002;5.468;2023-02-22T03:30:33;101379.19;;;7.01;84.53
73341;BME280;61578;52.002;5.468;2023-02-22T03:31:16;101382.84;;;6.97;84.39
73341;BME280;61578;52.002;5.468;2023-02-22T03:31:57;101333.94;;;6.67;85.08
73341;BME280;61578;52.002;5.468;2023-02-22T03:32:37;101379.28;;;6.98;84.80
73341;BME280;61578;52.002;5.468;2023-02-22T03:33:29;101380.22;;;6.97;84.79
73341;BME280;61578;52.002;5.468;2023-02-22T03:34:12;101377.50;;;6.99;84.88
73341;BME280;61578;52.002;5.468;2023-02-22T03:35:07;101381.13;;;6.96;84.89
73341;BME280;61578;52.002;5.468;2023-02-22T03:35:54;101384.56;;;6.98;85.11
73341;BME280;61578;52.002;5.468;2023-02-22T03:36:34;101387.44;;;6.92;85.09
73341;BME280;61578;52.002;5.468;2023-02-22T03:37:17;101396.00;;;6.99;84.99
73341;BME280;61578;52.002;5.468;2023-02-22T03:37:57;101380.22;;;6.97;84.74
73341;BME280;61578;52.002;5.468;2023-02-22T03:38:36;101376.81;;;6.94;84.78
73341;BME280;61578;52.002;5.468;2023-02-22T03:39:13;101373.47;;;6.90;85.28
73341;BME280;61578;52.002;5.468;2023-02-22T03:39:52;101383.81;;;6.95;85.43
73341;BME280;61578;52.002;5.468;2023-02-22T03:40:36;101378.75;;;6.90;85.45
73341;BME280;61578;52.002;5.468;2023-02-22T03:41:17;101382.38;;;6.88;85.47